createdAt,value
2018-07-07T00:01:19.431Z,15.20
2018-07-07T00:03:47.648Z,15.20
2018-07-07T00:06:15.950Z,15.20
2018-07-07T00:08:44.229Z,15.10
2018-07-07T00:13:40.429Z,15.00
2018-07-07T00:16:08.631Z,15.00
2018-07-07T00:18:36.856Z,15.00
2018-07-07T00:21:05.070Z,15.00
2018-07-07T00:23:33.270Z,15.10
2018-07-07T00:26:02.390Z,15.10
2018-07-07T00:28:30.962Z,15.10
2018-07-07T00:30:59.179Z,15.00
2018-07-07T00:33:27.413Z,15.00
2018-07-07T00:35:55.622Z,15.00
2018-07-07T00:38:24.339Z,15.00
2018-07-07T00:40:52.610Z,14.90
2018-07-07T00:43:20.823Z,14.90
2018-07-07T00:45:49.031Z,14.90
2018-07-07T00:48:17.237Z,14.80
2018-07-07T00:50:45.438Z,14.80
2018-07-07T00:53:13.642Z,14.80
2018-07-07T00:55:41.851Z,14.70
2018-07-07T00:58:10.058Z,14.70
2018-07-07T01:00:48.056Z,14.70
2018-07-07T01:03:16.245Z,14.70
2018-07-07T01:05:44.732Z,14.60
2018-07-07T01:08:12.979Z,14.70
2018-07-07T01:10:41.801Z,14.60
2018-07-07T01:13:10.025Z,14.60
2018-07-07T01:15:38.263Z,14.60
2018-07-07T01:18:06.691Z,14.50
2018-07-07T01:20:34.921Z,14.50
2018-07-07T01:23:03.966Z,14.50
2018-07-07T01:25:46.231Z,14.50
2018-07-07T01:30:42.897Z,14.40
2018-07-07T01:33:11.089Z,14.50
2018-07-07T01:35:39.291Z,14.50
2018-07-07T01:38:07.486Z,14.40
2018-07-07T01:40:35.743Z,14.40
2018-07-07T01:43:03.990Z,14.40
2018-07-07T01:45:32.237Z,14.30
2018-07-07T01:48:00.534Z,14.30
2018-07-07T01:50:28.749Z,14.30
2018-07-07T01:52:56.991Z,14.30
2018-07-07T01:55:25.206Z,14.20
2018-07-07T01:57:53.483Z,14.20
2018-07-07T02:00:21.769Z,14.20
2018-07-07T02:02:49.967Z,14.20
2018-07-07T02:05:18.207Z,14.20
2018-07-07T02:07:46.473Z,14.20
2018-07-07T02:10:14.734Z,14.20
2018-07-07T02:12:42.949Z,14.20
2018-07-07T02:15:11.161Z,14.20
2018-07-07T02:17:39.377Z,14.20
2018-07-07T02:20:07.582Z,14.20
2018-07-07T02:22:35.829Z,14.20
2018-07-07T02:25:04.075Z,14.20
2018-07-07T02:27:32.342Z,14.20
2018-07-07T02:30:00.568Z,14.10
2018-07-07T02:32:28.844Z,14.10
2018-07-07T02:34:57.066Z,14.10
2018-07-07T02:37:25.309Z,14.10
2018-07-07T02:39:53.526Z,14.00
2018-07-07T02:42:21.752Z,14.00
2018-07-07T02:44:49.964Z,14.00
2018-07-07T02:47:18.204Z,14.00
2018-07-07T02:49:46.411Z,14.00
2018-07-07T02:52:14.891Z,14.00
2018-07-07T02:54:43.202Z,14.00
2018-07-07T02:57:11.430Z,14.10
2018-07-07T02:59:39.632Z,14.00
2018-07-07T03:02:07.840Z,14.10
2018-07-07T03:04:36.075Z,14.00
2018-07-07T03:07:04.325Z,14.10
2018-07-07T03:09:32.536Z,14.10
2018-07-07T03:12:01.443Z,14.00
2018-07-07T03:14:29.767Z,14.00
2018-07-07T03:16:58.027Z,14.00
2018-07-07T03:19:26.320Z,14.00
2018-07-07T03:21:54.502Z,14.00
2018-07-07T03:24:22.695Z,14.00
2018-07-07T03:26:50.897Z,14.00
2018-07-07T03:29:19.082Z,14.00
2018-07-07T03:31:47.269Z,14.00
2018-07-07T03:34:15.484Z,14.00
2018-07-07T03:36:43.717Z,14.00
2018-07-07T03:39:11.910Z,14.00
2018-07-07T03:41:40.124Z,14.00
2018-07-07T03:44:08.342Z,14.00
2018-07-07T03:46:36.643Z,14.10
2018-07-07T03:49:05.059Z,14.20
2018-07-07T03:51:33.361Z,14.10
2018-07-07T03:54:01.570Z,14.20
2018-07-07T03:56:29.786Z,14.10
2018-07-07T03:58:58.072Z,14.10
2018-07-07T04:01:26.283Z,14.20
2018-07-07T04:03:54.499Z,14.20
2018-07-07T04:06:22.739Z,14.20
2018-07-07T04:08:50.952Z,14.20
2018-07-07T04:11:19.153Z,14.30
2018-07-07T04:13:47.385Z,14.30
2018-07-07T04:16:15.624Z,14.30
2018-07-07T04:18:43.838Z,14.30
2018-07-07T04:21:12.043Z,14.40
2018-07-07T04:23:40.240Z,14.40
2018-07-07T04:26:08.430Z,14.50
2018-07-07T04:28:36.609Z,14.60
2018-07-07T04:31:04.882Z,14.60
2018-07-07T04:33:33.053Z,14.60
2018-07-07T04:36:01.243Z,14.70
2018-07-07T04:38:29.433Z,14.70
2018-07-07T04:40:57.632Z,14.80
2018-07-07T04:43:25.909Z,14.80
2018-07-07T04:45:54.159Z,14.90
2018-07-07T04:48:22.305Z,15.00
2018-07-07T04:50:50.506Z,15.10
2018-07-07T04:53:18.701Z,15.20
2018-07-07T04:55:46.885Z,15.20
2018-07-07T04:58:15.082Z,15.20
2018-07-07T05:00:43.278Z,15.30
2018-07-07T05:03:11.480Z,15.30
2018-07-07T05:05:39.687Z,15.40
2018-07-07T05:08:07.884Z,15.50
2018-07-07T05:10:36.077Z,15.50
2018-07-07T05:15:32.282Z,15.70
2018-07-07T05:18:00.411Z,15.80
2018-07-07T05:20:28.698Z,15.90
2018-07-07T05:22:56.876Z,16.00
2018-07-07T05:25:25.065Z,16.00
2018-07-07T05:27:53.274Z,16.00
2018-07-07T05:30:21.602Z,16.00
2018-07-07T05:32:49.823Z,16.10
2018-07-07T05:35:18.056Z,16.20
2018-07-07T05:37:46.265Z,16.30
2018-07-07T05:40:14.479Z,16.40
2018-07-07T05:42:43.240Z,16.50
2018-07-07T05:45:11.461Z,16.60
2018-07-07T05:47:39.674Z,16.70
2018-07-07T05:50:07.933Z,16.80
2018-07-07T05:52:36.082Z,16.90
2018-07-07T05:55:04.290Z,16.90
2018-07-07T05:57:32.541Z,16.90
2018-07-07T06:00:00.679Z,17.00
2018-07-07T06:02:28.866Z,17.00
2018-07-07T06:04:57.066Z,17.10
2018-07-07T06:07:25.254Z,17.20
2018-07-07T06:09:53.449Z,17.30
2018-07-07T06:12:21.644Z,17.40
2018-07-07T06:14:49.826Z,17.50
2018-07-07T06:17:18.014Z,17.70
2018-07-07T06:19:46.203Z,17.70
2018-07-07T06:22:14.385Z,17.90
2018-07-07T06:24:42.576Z,18.20
2018-07-07T06:27:10.752Z,18.60
2018-07-07T06:29:38.940Z,18.80
2018-07-07T06:32:07.136Z,18.80
2018-07-07T06:34:35.361Z,18.90
2018-07-07T06:37:03.557Z,19.10
2018-07-07T06:39:31.749Z,19.20
2018-07-07T06:41:59.969Z,19.50
2018-07-07T06:44:28.166Z,19.50
2018-07-07T06:46:56.456Z,19.60
2018-07-07T06:49:24.668Z,19.50
2018-07-07T06:51:52.869Z,19.50
2018-07-07T06:54:21.059Z,19.40
2018-07-07T06:56:49.306Z,19.30
2018-07-07T06:59:17.566Z,19.50
2018-07-07T07:01:45.755Z,19.50
2018-07-07T07:04:13.959Z,19.60
2018-07-07T07:06:42.149Z,19.70
2018-07-07T07:09:10.921Z,19.80
2018-07-07T07:11:39.119Z,20.00
2018-07-07T07:14:07.790Z,20.00
2018-07-07T07:16:35.982Z,20.00
2018-07-07T07:19:04.362Z,20.10
2018-07-07T07:21:32.849Z,20.10
2018-07-07T07:24:01.324Z,20.00
2018-07-07T07:26:29.546Z,19.90
2018-07-07T07:28:57.878Z,19.90
2018-07-07T07:31:26.097Z,19.60
2018-07-07T07:33:54.279Z,19.60
2018-07-07T07:36:31.453Z,19.60
2018-07-07T07:39:00.232Z,19.80
2018-07-07T07:41:28.471Z,19.90
2018-07-07T07:43:56.777Z,20.10
2018-07-07T07:46:25.037Z,20.20
2018-07-07T07:48:53.272Z,20.40
2018-07-07T07:51:21.420Z,20.40
2018-07-07T07:53:49.840Z,20.60
2018-07-07T07:56:18.057Z,20.80
2018-07-07T07:58:46.241Z,20.80
2018-07-07T08:01:14.445Z,20.80
2018-07-07T08:03:42.964Z,20.70
2018-07-07T08:06:11.265Z,20.90
2018-07-07T08:08:39.532Z,21.10
2018-07-07T08:11:07.897Z,21.10
2018-07-07T08:13:36.377Z,21.00
2018-07-07T08:16:04.637Z,20.80
2018-07-07T08:18:32.813Z,20.70
2018-07-07T08:21:00.980Z,20.60
2018-07-07T08:23:29.161Z,20.80
2018-07-07T08:25:57.358Z,21.00
2018-07-07T08:28:25.635Z,21.00
2018-07-07T08:30:53.998Z,21.10
2018-07-07T08:33:22.508Z,21.10
2018-07-07T08:35:50.754Z,21.20
2018-07-07T08:40:47.190Z,21.30
2018-07-07T08:43:17.961Z,21.40
2018-07-07T08:45:46.452Z,21.40
2018-07-07T08:48:15.142Z,21.40
2018-07-07T08:50:44.117Z,21.50
2018-07-07T08:53:12.694Z,21.60
2018-07-07T08:55:40.913Z,21.60
2018-07-07T08:58:09.097Z,21.80
2018-07-07T09:00:37.280Z,21.80
2018-07-07T09:03:06.744Z,21.90
2018-07-07T09:05:34.950Z,21.90
2018-07-07T09:08:03.586Z,22.00
2018-07-07T09:10:32.180Z,22.00
2018-07-07T09:13:00.524Z,22.10
2018-07-07T09:15:29.163Z,22.30
2018-07-07T09:17:57.361Z,22.40
2018-07-07T09:20:25.553Z,22.60
2018-07-07T09:22:53.845Z,22.50
2018-07-07T09:25:22.078Z,22.40
2018-07-07T09:27:50.272Z,22.70
2018-07-07T09:30:18.490Z,22.60
2018-07-07T09:32:46.693Z,22.60
2018-07-07T09:35:14.886Z,22.60
2018-07-07T09:37:43.100Z,22.10
2018-07-07T09:40:11.297Z,21.80
2018-07-07T09:42:39.505Z,21.80
2018-07-07T09:45:07.698Z,21.80
2018-07-07T09:47:35.911Z,22.10
2018-07-07T09:50:04.396Z,22.40
2018-07-07T09:52:32.605Z,22.70
2018-07-07T09:55:00.814Z,22.90
2018-07-07T09:57:29.010Z,22.90
2018-07-07T09:59:57.209Z,22.50
2018-07-07T10:02:25.414Z,22.30
2018-07-07T10:04:53.684Z,22.20
2018-07-07T10:07:21.938Z,22.30
2018-07-07T10:09:50.097Z,22.80
2018-07-07T10:12:18.292Z,22.90
2018-07-07T10:14:46.486Z,23.00
2018-07-07T10:17:14.673Z,23.20
2018-07-07T10:19:42.868Z,23.50
2018-07-07T10:22:11.097Z,23.60
2018-07-07T10:24:39.298Z,23.40
2018-07-07T10:27:07.560Z,23.20
2018-07-07T10:29:35.761Z,23.30
2018-07-07T10:32:03.941Z,23.60
2018-07-07T10:34:32.120Z,23.70
2018-07-07T10:37:00.308Z,24.00
2018-07-07T10:39:28.498Z,23.60
2018-07-07T10:41:56.719Z,23.20
2018-07-07T10:44:24.861Z,22.80
2018-07-07T10:46:53.045Z,22.70
2018-07-07T10:49:21.261Z,22.80
2018-07-07T10:51:49.474Z,23.00
2018-07-07T10:54:17.678Z,23.20
2018-07-07T10:56:45.910Z,23.40
2018-07-07T10:59:14.142Z,23.70
2018-07-07T11:01:42.342Z,24.10
2018-07-07T11:04:10.601Z,24.20
2018-07-07T11:06:38.836Z,24.00
2018-07-07T11:09:07.073Z,23.90
2018-07-07T11:11:35.292Z,23.80
2018-07-07T11:14:03.539Z,23.70
2018-07-07T11:16:31.869Z,23.60
2018-07-07T11:19:00.055Z,23.60
2018-07-07T11:21:28.237Z,23.50
2018-07-07T11:23:56.689Z,23.60
2018-07-07T11:26:24.865Z,23.70
2018-07-07T11:28:53.045Z,23.70
2018-07-07T11:31:21.224Z,23.60
2018-07-07T11:33:49.416Z,23.50
2018-07-07T11:36:17.651Z,23.30
2018-07-07T11:38:45.810Z,23.40
2018-07-07T11:41:16.881Z,23.60
2018-07-07T11:43:45.061Z,23.60
2018-07-07T11:46:13.273Z,23.50
2018-07-07T11:48:41.449Z,23.60
2018-07-07T11:51:09.888Z,23.40
2018-07-07T11:53:38.064Z,23.60
2018-07-07T11:56:06.257Z,23.90
2018-07-07T11:58:34.442Z,24.20
2018-07-07T12:01:02.635Z,24.50
2018-07-07T12:03:30.816Z,24.90
2018-07-07T12:05:58.993Z,25.10
2018-07-07T12:08:27.195Z,25.20
2018-07-07T12:10:55.376Z,25.00
2018-07-07T12:13:23.561Z,24.60
2018-07-07T12:15:51.734Z,24.80
2018-07-07T12:18:19.908Z,24.70
2018-07-07T12:20:48.097Z,24.60
2018-07-07T12:23:16.291Z,24.30
2018-07-07T12:25:44.476Z,23.60
2018-07-07T12:28:12.644Z,23.30
2018-07-07T12:30:40.825Z,23.60
2018-07-07T12:33:09.097Z,23.90
2018-07-07T12:35:37.280Z,24.20
2018-07-07T12:38:05.457Z,24.10
2018-07-07T12:40:33.696Z,24.20
2018-07-07T12:43:01.994Z,24.40
2018-07-07T12:45:30.229Z,24.40
2018-07-07T12:50:26.641Z,24.70
2018-07-07T12:52:54.873Z,25.00
2018-07-07T12:55:23.125Z,25.20
2018-07-07T12:57:51.305Z,25.40
2018-07-07T13:00:19.537Z,25.60
2018-07-07T13:02:47.727Z,25.90
2018-07-07T13:05:15.901Z,26.10
2018-07-07T13:07:44.081Z,26.10
2018-07-07T13:10:12.253Z,25.90
2018-07-07T13:12:40.495Z,25.60
2018-07-07T13:15:08.715Z,25.30
2018-07-07T13:17:36.955Z,25.10
2018-07-07T13:20:05.128Z,25.00
2018-07-07T13:22:33.304Z,24.90
2018-07-07T13:25:01.499Z,25.00
2018-07-07T13:27:29.690Z,25.10
2018-07-07T13:29:57.954Z,25.40
2018-07-07T13:32:26.133Z,25.30
2018-07-07T13:34:54.403Z,25.30
2018-07-07T13:37:22.581Z,25.30
2018-07-07T13:39:50.799Z,24.90
2018-07-07T13:42:18.977Z,24.50
2018-07-07T13:44:47.144Z,24.50
2018-07-07T13:47:15.335Z,24.60
2018-07-07T13:52:11.484Z,24.90
2018-07-07T13:54:39.712Z,25.00
2018-07-07T13:57:07.916Z,24.90
2018-07-07T13:59:36.125Z,25.00
2018-07-07T14:02:04.331Z,25.00
2018-07-07T14:04:32.533Z,24.80
2018-07-07T14:07:00.820Z,24.40
2018-07-07T14:09:29.085Z,24.10
2018-07-07T14:11:57.367Z,24.10
2018-07-07T14:14:25.594Z,24.20
2018-07-07T14:16:54.648Z,24.20
2018-07-07T14:19:22.848Z,24.00
2018-07-07T14:21:51.071Z,23.90
2018-07-07T14:24:19.272Z,23.80
2018-07-07T14:26:47.492Z,23.90
2018-07-07T14:29:15.699Z,23.80
2018-07-07T14:31:44.007Z,24.00
2018-07-07T14:34:12.222Z,24.20
2018-07-07T14:36:40.452Z,24.40
2018-07-07T14:39:08.702Z,24.30
2018-07-07T14:41:36.934Z,24.10
2018-07-07T14:44:05.518Z,24.00
2018-07-07T14:46:34.723Z,23.70
2018-07-07T14:49:02.912Z,23.60
2018-07-07T14:51:31.114Z,23.60
2018-07-07T14:53:59.341Z,23.80
2018-07-07T14:56:28.569Z,24.00
2018-07-07T14:58:56.934Z,23.80
2018-07-07T15:01:25.134Z,23.70
2018-07-07T15:03:53.361Z,23.50
2018-07-07T15:06:21.561Z,23.40
2018-07-07T15:08:49.768Z,23.40
2018-07-07T15:11:17.969Z,23.40
2018-07-07T15:13:47.601Z,23.60
2018-07-07T15:16:15.805Z,23.90
2018-07-07T15:18:44.434Z,24.10
2018-07-07T15:21:12.653Z,24.20
2018-07-07T15:23:40.859Z,24.20
2018-07-07T15:26:09.070Z,24.30
2018-07-07T15:28:37.316Z,24.40
2018-07-07T15:31:05.737Z,24.40
2018-07-07T15:33:33.954Z,24.30
2018-07-07T15:36:02.150Z,24.10
2018-07-07T15:38:30.349Z,24.20
2018-07-07T15:40:58.556Z,24.20
2018-07-07T15:43:26.871Z,24.40
2018-07-07T15:45:55.103Z,24.40
2018-07-07T15:48:23.314Z,24.40
2018-07-07T15:50:51.528Z,24.40
2018-07-07T15:53:19.732Z,24.30
2018-07-07T15:55:47.937Z,24.30
2018-07-07T15:58:16.143Z,24.30
2018-07-07T16:00:44.377Z,24.20
2018-07-07T16:03:12.586Z,24.20
2018-07-07T16:05:40.809Z,24.20
2018-07-07T16:08:09.007Z,24.30
2018-07-07T16:10:37.197Z,24.30
2018-07-07T16:13:05.412Z,24.40
2018-07-07T16:15:33.621Z,24.50
2018-07-07T16:18:01.861Z,24.60
2018-07-07T16:20:30.078Z,24.70
2018-07-07T16:22:58.358Z,24.70
2018-07-07T16:25:26.576Z,24.60
2018-07-07T16:27:54.834Z,24.40
2018-07-07T16:30:23.047Z,24.30
2018-07-07T16:32:51.261Z,24.40
2018-07-07T16:35:19.451Z,24.50
2018-07-07T16:37:47.668Z,24.60
2018-07-07T16:40:15.862Z,24.50
2018-07-07T16:42:44.161Z,24.50
2018-07-07T16:45:12.378Z,24.40
2018-07-07T16:47:40.665Z,24.30
2018-07-07T16:50:08.981Z,24.10
2018-07-07T16:52:37.185Z,23.90
2018-07-07T16:56:29.658Z,23.70
2018-07-07T16:58:57.897Z,23.60
2018-07-07T17:01:26.926Z,23.40
2018-07-07T17:03:55.454Z,23.30
2018-07-07T17:06:23.732Z,23.30
2018-07-07T17:08:51.923Z,23.30
2018-07-07T17:11:20.113Z,23.20
2018-07-07T17:13:48.298Z,23.20
2018-07-07T17:16:16.557Z,23.10
2018-07-07T17:18:44.760Z,23.00
2018-07-07T17:21:13.043Z,22.90
2018-07-07T17:23:41.313Z,22.80
2018-07-07T17:26:09.491Z,22.80
2018-07-07T17:28:37.921Z,22.80
2018-07-07T17:31:06.127Z,22.70
2018-07-07T17:33:34.313Z,22.70
2018-07-07T17:36:02.502Z,22.70
2018-07-07T17:38:31.120Z,22.70
2018-07-07T17:40:59.709Z,22.70
2018-07-07T17:43:28.597Z,22.70
2018-07-07T17:45:56.776Z,22.60
2018-07-07T17:48:25.112Z,22.50
2018-07-07T17:50:53.284Z,22.40
2018-07-07T17:53:21.918Z,22.40
2018-07-07T17:55:50.369Z,22.30
2018-07-07T17:58:18.910Z,22.20
2018-07-07T18:00:47.084Z,22.20
2018-07-07T18:03:15.261Z,22.10
2018-07-07T18:05:43.457Z,22.00
2018-07-07T18:08:11.637Z,22.00
2018-07-07T18:10:39.883Z,21.90
2018-07-07T18:13:08.242Z,21.80
2018-07-07T18:15:36.525Z,21.80
2018-07-07T18:18:04.829Z,21.70
2018-07-07T18:20:33.034Z,21.70
2018-07-07T18:23:01.232Z,21.70
2018-07-07T18:25:29.413Z,21.60
2018-07-07T18:27:57.727Z,21.50
2018-07-07T18:30:25.921Z,21.40
2018-07-07T18:32:54.375Z,21.40
2018-07-07T18:35:22.550Z,21.40
2018-07-07T18:37:50.850Z,21.30
2018-07-07T18:40:18.929Z,21.20
2018-07-07T18:42:47.133Z,21.10
2018-07-07T18:45:15.332Z,21.00
2018-07-07T18:47:43.516Z,20.80
2018-07-07T18:50:11.726Z,20.80
2018-07-07T18:52:39.996Z,20.70
2018-07-07T18:57:36.076Z,20.40
2018-07-07T19:00:04.461Z,20.30
2018-07-07T19:02:32.650Z,20.20
2018-07-07T19:05:00.851Z,20.10
2018-07-07T19:07:29.075Z,19.90
2018-07-07T20:34:55.097Z,19.70
2018-07-07T20:37:23.293Z,16.40
2018-07-07T20:39:51.499Z,16.30
2018-07-07T20:42:19.742Z,16.30
2018-07-07T20:44:47.956Z,16.20
2018-07-07T20:47:16.131Z,16.20
2018-07-07T20:49:44.313Z,16.10
2018-07-07T20:52:12.591Z,16.10
2018-07-07T20:54:40.769Z,16.10
2018-07-07T20:57:08.945Z,16.10
2018-07-07T20:59:37.133Z,16.00
2018-07-07T21:02:05.523Z,16.00
2018-07-07T21:04:33.693Z,16.00
2018-07-07T21:07:01.877Z,16.00
2018-07-07T21:09:30.053Z,15.90
2018-07-07T21:11:58.232Z,15.80
2018-07-07T21:14:26.429Z,15.80
2018-07-07T21:19:24.095Z,15.80
2018-07-07T21:21:52.265Z,15.90
2018-07-07T21:24:20.456Z,15.90
2018-07-07T21:26:48.648Z,15.90
2018-07-07T21:29:16.856Z,16.00
2018-07-07T21:31:45.040Z,16.00
2018-07-07T21:34:13.221Z,16.00
2018-07-07T21:36:41.418Z,15.90
2018-07-07T21:39:09.613Z,15.90
2018-07-07T21:44:06.024Z,15.80
2018-07-07T21:46:34.209Z,15.80
2018-07-07T21:49:02.409Z,15.80
2018-07-07T21:51:30.726Z,15.80
2018-07-07T21:53:58.997Z,15.80
2018-07-07T21:56:27.221Z,15.80
2018-07-07T21:59:00.733Z,15.80
2018-07-07T22:02:06.372Z,15.90
2018-07-07T22:04:40.081Z,15.90
2018-07-07T22:07:13.957Z,15.90
2018-07-07T22:09:43.045Z,15.90
2018-07-07T22:12:11.990Z,15.90
2018-07-07T22:14:40.186Z,15.80
2018-07-07T22:17:08.368Z,15.80
2018-07-07T22:19:36.554Z,15.80
2018-07-07T22:22:08.857Z,15.70
2018-07-07T22:24:37.393Z,15.70
2018-07-07T22:27:06.689Z,15.70
2018-07-07T22:29:34.874Z,15.70
2018-07-07T22:32:05.413Z,15.70
2018-07-07T22:34:37.085Z,15.70
2018-07-07T22:37:05.367Z,15.70
2018-07-07T22:39:35.562Z,15.70
2018-07-07T22:42:05.904Z,15.80
2018-07-07T22:44:34.693Z,15.90
2018-07-07T22:47:02.878Z,15.90
2018-07-07T22:49:31.392Z,15.90
2018-07-07T22:51:59.569Z,16.00
2018-07-07T22:54:27.809Z,16.00
2018-07-07T22:56:56.001Z,16.00
2018-07-07T22:59:24.222Z,16.00
2018-07-07T23:01:52.423Z,16.00
2018-07-07T23:04:20.621Z,16.00
2018-07-07T23:06:48.965Z,16.00
2018-07-07T23:09:17.964Z,16.00
2018-07-07T23:11:46.157Z,16.10
2018-07-07T23:14:14.353Z,16.10
2018-07-07T23:16:42.570Z,16.10
2018-07-07T23:19:10.761Z,16.10
2018-07-07T23:21:38.957Z,16.10
2018-07-07T23:24:07.213Z,16.10
2018-07-07T23:26:35.400Z,16.00
2018-07-07T23:29:04.373Z,16.00
2018-07-07T23:31:32.554Z,16.00
2018-07-07T23:34:00.742Z,16.00
2018-07-07T23:36:28.977Z,16.00
2018-07-07T23:38:57.165Z,16.00
2018-07-07T23:41:25.420Z,16.00
2018-07-07T23:43:53.636Z,16.00
2018-07-07T23:46:21.801Z,16.00
2018-07-07T23:48:49.977Z,16.00
2018-07-07T23:51:18.161Z,16.00
2018-07-07T23:53:46.361Z,16.00
2018-07-07T23:56:14.553Z,16.00
2018-07-07T23:58:42.741Z,16.00
